Time;durP1;ratioP1;P1;durP2;ratioP2;P2;SDS_P1;SDS_P2;PMS_P1;PMS_P2;Temp;Humidity;BMP_temperature;BMP_pressure;BME280_temperature;BME280_humidity;BME280_pressure;Samples;Min_cycle;Max_cycle;Signal;HPM_P1;HPM_P2
2022/08/30 00:03:08;;;;;;;8.20;5.35;;;;;;;15.23;nan;102044.06;5037910;28;20048;-64
2022/08/30 00:05:34;;;;;;;8.32;5.50;;;;;;;15.21;nan;102052.91;5035793;28;20033;-58
2022/08/30 00:08:00;;;;;;;5.47;4.97;;;;;;;15.19;nan;102053.91;5035936;28;20090;-58
2022/08/30 00:10:27;;;;;;;6.10;4.90;;;;;;;14.80;nan;101980.94;5035645;28;20048;-64
2022/08/30 00:12:53;;;;;;;8.15;5.10;;;;;;;14.87;nan;101988.63;5053625;28;20060;-59
2022/08/30 00:15:18;;;;;;;8.77;4.47;;;;;;;15.14;nan;102043.44;5036060;28;20033;-55
2022/08/30 00:17:44;;;;;;;7.53;4.95;;;;;;;15.10;nan;102025.00;5053562;28;20033;-59
2022/08/30 00:20:12;;;;;;;5.72;4.72;;;;;;;15.09;nan;102033.91;5035419;28;20408;-59
2022/08/30 00:22:38;;;;;;;7.07;4.30;;;;;;;15.05;nan;102030.47;5053548;28;20037;-57
2022/08/30 00:25:04;;;;;;;6.68;4.72;;;;;;;14.99;nan;102020.06;5035757;28;20040;-54
2022/08/30 00:27:30;;;;;;;6.57;4.15;;;;;;;15.05;nan;102022.53;5035516;28;20068;-56
2022/08/30 00:29:55;;;;;;;6.88;4.55;;;;;;;14.81;nan;101987.97;5053124;28;20469;-55
2022/08/30 00:32:22;;;;;;;6.18;3.67;;;;;;;15.00;nan;102015.63;5053241;28;20119;-58
2022/08/30 00:34:48;;;;;;;4.93;4.43;;;;;;;14.91;nan;102022.09;5053148;28;20488;-58
2022/08/30 00:37:14;;;;;;;6.13;4.47;;;;;;;15.01;nan;102033.25;5035390;28;20400;-58
2022/08/30 00:39:39;;;;;;;7.15;4.35;;;;;;;15.01;nan;102027.97;5053031;28;20037;-52
2022/08/30 00:42:06;;;;;;;8.05;4.95;;;;;;;14.91;nan;102019.44;5053021;28;20037;-62
2022/08/30 00:44:31;;;;;;;6.43;4.57;;;;;;;15.02;nan;102033.22;5018550;28;20043;-53
2022/08/30 00:46:57;;;;;;;7.18;4.50;;;;;;;15.04;nan;102047.28;5035039;28;20032;-59
2022/08/30 00:49:22;;;;;;;7.07;4.28;;;;;;;14.77;nan;101991.63;5052276;28;20029;-57
2022/08/30 00:51:48;;;;;;;7.93;5.05;;;;;;;14.87;nan;101998.38;5035215;28;20079;-59
2022/08/30 00:54:13;;;;;;;9.77;4.82;;;;;;;14.77;nan;101981.03;5052890;28;20117;-60
2022/08/30 00:56:39;;;;;;;7.72;4.63;;;;;;;15.07;nan;102039.25;5052877;28;20362;-58
2022/08/30 00:59:06;;;;;;;6.88;5.85;;;;;;;14.81;nan;101994.13;5034848;28;20515;-58
2022/08/30 01:01:34;;;;;;;5.75;4.45;;;;;;;15.04;nan;102036.69;5018343;28;20029;-56
2022/08/30 01:04:00;;;;;;;7.50;5.30;;;;;;;15.02;nan;102027.94;5052638;28;20033;-58
2022/08/30 01:06:27;;;;;;;7.22;5.25;;;;;;;14.77;nan;101992.47;5034986;28;20052;-58
2022/08/30 01:08:52;;;;;;;8.63;4.97;;;;;;;15.01;nan;102031.47;5052538;28;20063;-63
2022/08/30 01:11:20;;;;;;;6.50;4.75;;;;;;;14.75;nan;101980.19;5052499;28;20061;-59
2022/08/30 01:13:46;;;;;;;7.05;5.30;;;;;;;14.99;nan;102025.38;5034769;28;20049;-56
2022/08/30 01:16:12;;;;;;;5.50;5.00;;;;;;;15.02;nan;102037.66;5034720;28;20051;-60
2022/08/30 01:18:38;;;;;;;7.22;5.13;;;;;;;14.75;nan;101991.66;5034345;28;20135;-62
2022/08/30 01:21:07;;;;;;;9.75;5.13;;;;;;;15.02;nan;102037.66;5034654;28;20025;-61
2022/08/30 01:23:34;;;;;;;8.43;5.72;;;;;;;14.74;nan;101997.03;5052390;28;20039;-59
2022/08/30 01:26:01;;;;;;;7.97;5.32;;;;;;;14.98;nan;102043.97;5034543;28;20165;-58
2022/08/30 01:28:27;;;;;;;10.98;5.57;;;;;;;14.67;nan;102004.31;5034389;28;20029;-57
2022/08/30 01:30:53;;;;;;;5.82;5.22;;;;;;;14.80;nan;102032.16;5017652;28;20404;-58
2022/08/30 01:33:21;;;;;;;6.68;5.97;;;;;;;14.88;nan;102046.06;5052377;28;20025;-58
2022/08/30 01:35:48;;;;;;;7.55;6.05;;;;;;;14.89;nan;102045.13;5018881;28;20064;-56
2022/08/30 01:38:15;;;;;;;7.35;5.80;;;;;;;14.64;nan;101999.09;5034374;28;20029;-64
2022/08/30 01:40:41;;;;;;;8.05;5.90;;;;;;;14.64;nan;101994.66;5034543;28;20037;-55
2022/08/30 01:43:06;;;;;;;7.68;5.82;;;;;;;14.86;nan;102039.03;5017702;28;20090;-59
2022/08/30 01:45:32;;;;;;;8.32;6.10;;;;;;;14.89;nan;102039.81;5051997;28;20036;-56
2022/08/30 01:47:57;;;;;;;18.73;6.40;;;;;;;14.88;nan;102043.41;5052108;28;20040;-57
2022/08/30 01:50:22;;;;;;;9.93;6.70;;;;;;;14.73;nan;102014.72;5052063;28;20434;-60
2022/08/30 01:52:48;;;;;;;10.02;6.25;;;;;;;14.57;nan;101976.34;5052062;28;20464;-58
2022/08/30 01:55:13;;;;;;;8.68;6.88;;;;;;;14.87;nan;102043.44;5052123;28;20033;-61
2022/08/30 01:57:38;;;;;;;6.53;5.93;;;;;;;14.86;nan;102036.38;5051972;28;20384;-54
2022/08/30 02:00:08;;;;;;;8.98;6.63;;;;;;;14.85;nan;102043.50;5033982;28;20484;-58
2022/08/30 02:02:33;;;;;;;10.93;7.00;;;;;;;14.76;nan;102019.94;5034147;28;20082;-59
2022/08/30 02:04:59;;;;;;;7.10;6.35;;;;;;;14.83;nan;102041.78;5051934;28;20033;-54
2022/08/30 02:07:24;;;;;;;10.27;6.40;;;;;;;14.78;nan;102023.38;5034161;28;20044;-58
2022/08/30 02:09:50;;;;;;;10.48;6.35;;;;;;;14.73;nan;102033.28;5033895;28;20043;-58
2022/08/30 02:12:16;;;;;;;7.53;6.07;;;;;;;14.75;nan;102042.03;5051837;28;20040;-58
2022/08/30 02:14:41;;;;;;;6.82;6.18;;;;;;;14.70;nan;102041.31;5051433;28;20049;-58
2022/08/30 02:17:08;;;;;;;7.20;6.43;;;;;;;14.46;nan;102000.53;5017735;28;20126;-53
2022/08/30 02:19:33;;;;;;;7.55;6.80;;;;;;;14.45;nan;102000.56;5051631;28;20033;-58
2022/08/30 02:21:59;;;;;;;8.00;7.20;;;;;;;14.52;nan;102008.28;5033843;28;20040;-59
2022/08/30 02:24:24;;;;;;;8.43;7.68;;;;;;;14.36;nan;101983.16;5051775;28;20124;-59
2022/08/30 02:26:51;;;;;;;8.20;7.50;;;;;;;14.36;nan;101990.25;5053825;28;20400;-59
2022/08/30 02:29:17;;;;;;;8.15;7.35;;;;;;;14.60;nan;102021.28;5037750;28;20112;-60
2022/08/30 02:31:42;;;;;;;10.63;9.45;;;;;;;14.72;nan;102036.81;5055286;28;20129;-58
2022/08/30 02:34:08;;;;;;;9.38;8.20;;;;;;;14.62;nan;102020.31;5055650;28;20474;-59
2022/08/30 02:36:33;;;;;;;9.77;8.57;;;;;;;14.67;nan;102036.09;5037735;28;20039;-63
2022/08/30 02:38:58;;;;;;;10.35;8.75;;;;;;;14.62;nan;102015.03;5037653;28;20040;-62
2022/08/30 02:41:24;;;;;;;11.55;9.25;;;;;;;14.66;nan;102026.41;5055280;28;20037;-58
2022/08/30 02:43:50;;;;;;;10.55;9.35;;;;;;;14.69;nan;102033.38;5055253;28;20041;-61
2022/08/30 02:46:16;;;;;;;10.55;9.27;;;;;;;14.60;nan;102011.56;5055502;28;20472;-58
2022/08/30 02:48:42;;;;;;;10.57;9.48;;;;;;;14.37;nan;101968.13;5055306;28;20033;-59
2022/08/30 02:51:11;;;;;;;10.68;9.52;;;;;;;14.64;nan;102025.59;5037345;28;20094;-60
2022/08/30 02:53:38;;;;;;;10.93;9.80;;;;;;;14.61;nan;102023.03;5037616;28;20090;-59
2022/08/30 02:56:03;;;;;;;11.50;9.48;;;;;;;14.62;nan;102022.13;5037376;28;20072;-59
2022/08/30 02:58:29;;;;;;;10.82;9.00;;;;;;;14.57;nan;102021.38;5037033;28;20488;-58
2022/08/30 03:00:55;;;;;;;10.52;9.52;;;;;;;14.56;nan;102017.03;5054135;28;20032;-59
2022/08/30 03:03:20;;;;;;;10.95;9.23;;;;;;;14.52;nan;102021.53;5036974;28;20033;-57
2022/08/30 03:05:45;;;;;;;11.27;10.25;;;;;;;14.40;nan;102015.72;5055192;28;20396;-59
2022/08/30 03:08:11;;;;;;;11.80;10.70;;;;;;;14.16;nan;101985.47;5053711;28;20033;-58
2022/08/30 03:10:37;;;;;;;11.18;10.10;;;;;;;14.26;nan;102008.16;5036448;28;20040;-61
2022/08/30 03:13:04;;;;;;;12.43;11.32;;;;;;;14.23;nan;102013.53;5036841;28;20059;-59
2022/08/30 03:15:30;;;;;;;11.95;10.82;;;;;;;14.26;nan;102013.44;5037276;28;20514;-57
2022/08/30 03:17:56;;;;;;;12.10;10.85;;;;;;;14.23;nan;102018.84;5054860;28;20048;-58
2022/08/30 03:20:22;;;;;;;13.70;12.30;;;;;;;14.23;nan;102008.25;5054685;28;20373;-58
2022/08/30 03:22:48;;;;;;;14.07;12.52;;;;;;;14.25;nan;102014.34;5054715;28;20044;-58
2022/08/30 03:25:14;;;;;;;13.15;11.77;;;;;;;13.95;nan;101959.66;5036699;28;20033;-64
2022/08/30 03:27:39;;;;;;;14.00;12.65;;;;;;;14.27;nan;102011.69;5036547;28;20098;-60
2022/08/30 03:30:06;;;;;;;13.43;12.13;;;;;;;14.26;nan;102005.50;5036585;28;20032;-61
2022/08/30 03:32:31;;;;;;;15.15;12.32;;;;;;;14.26;nan;102010.81;5054391;28;20029;-63
2022/08/30 03:34:57;;;;;;;13.93;12.45;;;;;;;14.26;nan;102002.84;5036606;28;20033;-61
2022/08/30 03:37:23;;;;;;;14.43;12.95;;;;;;;14.05;nan;101975.22;5051973;28;20396;-62
2022/08/30 03:39:49;;;;;;;14.63;13.23;;;;;;;14.23;nan;102013.53;5054226;28;20044;-59
2022/08/30 03:42:14;;;;;;;15.43;12.82;;;;;;;13.93;nan;101950.88;5054546;28;20036;-59
2022/08/30 03:44:39;;;;;;;14.73;13.02;;;;;;;14.26;nan;102010.81;5036597;28;20082;-59
2022/08/30 03:47:06;;;;;;;14.05;12.65;;;;;;;14.20;nan;102003.03;5036664;28;20041;-59
2022/08/30 03:49:32;;;;;;;16.88;12.20;;;;;;;14.23;nan;102002.06;5054171;28;20039;-58
2022/08/30 03:51:57;;;;;;;15.20;13.52;;;;;;;13.91;nan;101958.88;5053981;28;20044;-59
2022/08/30 03:54:22;;;;;;;14.05;12.60;;;;;;;14.23;nan;102015.31;5053790;28;20037;-61
2022/08/30 03:56:48;;;;;;;13.55;12.30;;;;;;;14.13;nan;101995.31;5053731;28;20036;-60
2022/08/30 03:59:13;;;;;;;13.93;12.35;;;;;;;14.19;nan;102003.06;5035998;28;20039;-59
2022/08/30 04:01:40;;;;;;;15.07;13.50;;;;;;;13.95;nan;101964.94;5023196;28;20044;-58
2022/08/30 04:04:06;;;;;;;15.13;13.27;;;;;;;14.19;nan;102006.59;5032144;28;20029;-59
2022/08/30 04:06:32;;;;;;;15.18;13.65;;;;;;;14.19;nan;102006.59;5016169;28;20064;-64
2022/08/30 04:08:57;;;;;;;16.10;13.75;;;;;;;13.98;nan;101972.81;5033815;28;20124;-56
2022/08/30 04:11:22;;;;;;;16.33;14.63;;;;;;;13.80;nan;101944.19;5015822;28;20041;-62
2022/08/30 04:13:50;;;;;;;15.50;13.82;;;;;;;14.11;nan;101998.00;5033508;28;20053;-63
2022/08/30 04:16:16;;;;;;;16.58;14.77;;;;;;;14.09;nan;101997.19;5034449;28;20637;-61
2022/08/30 04:18:42;;;;;;;14.85;13.40;;;;;;;14.07;nan;101998.97;5016159;28;20067;-64
2022/08/30 04:21:07;;;;;;;16.77;13.20;;;;;;;14.08;nan;102003.38;4999569;28;20072;-58
2022/08/30 04:23:32;;;;;;;16.70;15.00;;;;;;;14.07;nan;102006.94;5015674;28;20549;-59
2022/08/30 04:25:58;;;;;;;18.23;15.43;;;;;;;14.02;nan;102000.91;5033467;28;20044;-57
2022/08/30 04:28:23;;;;;;;15.20;13.65;;;;;;;13.98;nan;101986.03;5033494;28;20040;-62
2022/08/30 04:30:48;;;;;;;15.40;13.52;;;;;;;13.77;nan;101945.16;5015630;28;20072;-61
2022/08/30 04:33:15;;;;;;;15.30;13.80;;;;;;;13.99;nan;101993.91;5015763;28;20033;-61
2022/08/30 04:35:47;;;;;;;15.80;14.13;;;;;;;13.65;nan;101934.03;5011934;28;20399;-58
2022/08/30 04:38:12;;;;;;;20.13;14.43;;;;;;;14.01;nan;102007.97;5053245;28;20056;-59
2022/08/30 04:40:41;;;;;;;15.20;13.80;;;;;;;13.73;nan;101956.72;5052974;28;20049;-59
2022/08/30 04:43:06;;;;;;;16.05;14.45;;;;;;;14.06;nan;102018.44;5052195;28;20033;-64
2022/08/30 04:45:31;;;;;;;16.65;14.02;;;;;;;14.03;nan;102011.47;5053067;28;20083;-55
2022/08/30 04:47:57;;;;;;;16.50;14.00;;;;;;;13.78;nan;101973.34;5053082;28;20037;-58
2022/08/30 04:50:22;;;;;;;17.48;14.30;;;;;;;13.98;nan;102018.63;5052368;28;20048;-59
2022/08/30 04:52:47;;;;;;;16.02;14.25;;;;;;;13.97;nan;102024.88;5050782;28;20449;-59
2022/08/30 04:55:13;;;;;;;16.00;14.48;;;;;;;13.92;nan;102023.25;5053142;28;20140;-65
2022/08/30 04:57:39;;;;;;;15.73;14.07;;;;;;;13.89;nan;102034.78;5032809;28;20040;-59
2022/08/30 05:00:10;;;;;;;15.60;13.70;;;;;;;13.85;nan;102033.13;5033229;28;20029;-62
2022/08/30 05:02:35;;;;;;;15.48;13.82;;;;;;;13.80;nan;102037.69;5052124;28;20463;-58
2022/08/30 05:07:45;;;;;;;17.23;14.60;;;;;;;13.46;nan;101991.84;5052716;28;20132;-60
2022/08/30 05:10:10;;;;;;;15.48;13.88;;;;;;;13.50;nan;101999.69;5051867;28;20120;-60
2022/08/30 05:12:36;;;;;;;18.77;15.13;;;;;;;13.78;nan;102046.56;5052450;28;20033;-65
2022/08/30 05:15:01;;;;;;;16.13;14.43;;;;;;;13.76;nan;102037.81;5051438;28;20063;-59
2022/08/30 05:17:27;;;;;;;17.83;15.57;;;;;;;13.82;nan;102049.09;5051351;28;20033;-53
2022/08/30 05:19:52;;;;;;;17.15;15.15;;;;;;;13.84;nan;102056.97;5034460;28;20032;-59
2022/08/30 05:22:17;;;;;;;15.43;13.82;;;;;;;13.56;nan;102006.59;5052168;28;20082;-63
2022/08/30 05:24:43;;;;;;;22.00;16.30;;;;;;;13.76;nan;102054.56;5052557;28;20068;-60
2022/08/30 05:27:08;;;;;;;18.02;15.30;;;;;;;13.67;nan;102015.09;5034804;28;20037;-59
2022/08/30 05:29:33;;;;;;;17.25;15.30;;;;;;;13.61;nan;101999.38;5052142;28;20043;-59
2022/08/30 05:31:59;;;;;;;16.85;15.05;;;;;;;13.98;nan;102066.28;5052214;28;20041;-58
2022/08/30 05:34:25;;;;;;;16.95;15.10;;;;;;;14.02;nan;102065.31;5052324;28;20043;-59
2022/08/30 05:36:51;;;;;;;17.13;15.02;;;;;;;14.07;nan;102059.88;5034349;28;20122;-57
2022/08/30 05:39:17;;;;;;;22.95;15.73;;;;;;;14.12;nan;102063.28;5052329;28;20029;-58
2022/08/30 05:41:42;;;;;;;16.98;15.25;;;;;;;14.05;nan;102043.19;5051879;28;20487;-62
2022/08/30 05:44:08;;;;;;;16.00;14.40;;;;;;;14.04;nan;102044.06;5052250;28;20439;-58
2022/08/30 05:46:35;;;;;;;15.95;14.32;;;;;;;13.95;nan;102008.13;5034403;28;20546;-59
2022/08/30 05:49:03;;;;;;;16.00;14.38;;;;;;;14.19;nan;102034.84;5051987;28;20075;-59
2022/08/30 05:51:30;;;;;;;16.80;15.10;;;;;;;14.16;nan;102013.75;5051783;28;20039;-58
2022/08/30 05:53:57;;;;;;;15.85;14.05;;;;;;;14.28;nan;102026.63;5052263;28;20032;-59
2022/08/30 05:56:30;;;;;;;16.88;13.52;;;;;;;14.56;nan;102062.06;5034326;28;20061;-58
2022/08/30 05:58:55;;;;;;;15.35;13.75;;;;;;;14.54;nan;102046.19;5051831;28;20439;-58
2022/08/30 06:01:26;;;;;;;15.65;14.13;;;;;;;14.69;nan;102070.50;5053367;28;20036;-60
2022/08/30 06:03:53;;;;;;;;;;;;;;;14.79;nan;102061.38;5038655;28;20029;-57
2022/08/30 06:06:19;;;;;;;14.40;12.70;;;;;;;14.86;nan;102069.06;5056083;28;20337;-59
2022/08/30 06:08:46;;;;;;;15.10;13.02;;;;;;;14.98;nan;102067.81;5037830;28;20033;-60
2022/08/30 06:11:12;;;;;;;13.32;12.10;;;;;;;15.08;nan;102061.34;5055441;28;20456;-57
2022/08/30 06:13:38;;;;;;;13.45;12.15;;;;;;;14.83;nan;102000.25;5055725;28;20049;-64
2022/08/30 06:16:04;;;;;;;13.07;11.73;;;;;;;15.21;nan;102049.41;5055607;28;20052;-60
2022/08/30 06:18:30;;;;;;;15.20;11.65;;;;;;;15.38;nan;102064.78;5055459;28;20413;-60
2022/08/30 06:20:56;;;;;;;13.40;11.38;;;;;;;15.35;nan;102051.63;5036377;28;20045;-63
2022/08/30 06:23:21;;;;;;;13.80;10.88;;;;;;;15.18;nan;102022.97;5054194;28;20040;-60
2022/08/30 06:25:47;;;;;;;12.13;10.93;;;;;;;15.51;nan;102067.00;5055654;28;20036;-62
2022/08/30 06:28:12;;;;;;;12.15;11.05;;;;;;;15.59;nan;102066.75;5037821;28;20029;-60
2022/08/30 06:30:40;;;;;;;11.55;10.35;;;;;;;15.40;nan;102017.84;5054310;28;20048;-60
2022/08/30 06:33:05;;;;;;;11.23;10.23;;;;;;;15.47;nan;102020.25;5055482;28;20031;-61
2022/08/30 06:35:31;;;;;;;11.15;9.40;;;;;;;15.48;nan;102016.69;5055641;28;20462;-66
2022/08/30 06:37:56;;;;;;;10.48;9.05;;;;;;;15.77;nan;102063.47;5055630;28;20045;-62
2022/08/30 06:40:22;;;;;;;10.15;8.98;;;;;;;15.84;nan;102062.34;5038079;28;20040;-62
2022/08/30 06:42:47;;;;;;;10.90;8.63;;;;;;;15.65;nan;102019.63;5037506;28;20115;-62
2022/08/30 06:45:14;;;;;;;9.70;8.35;;;;;;;15.89;nan;102048.91;5055295;28;20094;-60
2022/08/30 06:47:39;;;;;;;9.38;8.48;;;;;;;15.76;nan;102009.50;5037183;28;20029;-62
2022/08/30 06:50:05;;;;;;;9.05;8.23;;;;;;;16.11;nan;102068.47;5054715;28;20442;-60
2022/08/30 06:52:31;;;;;;;7.75;7.07;;;;;;;15.93;nan;102003.59;5055395;28;20033;-66
2022/08/30 06:54:57;;;;;;;6.93;6.32;;;;;;;16.42;nan;102069.09;5055338;28;20044;-61
2022/08/30 06:57:23;;;;;;;8.82;6.68;;;;;;;16.30;nan;102016.41;5055056;28;20041;-61
2022/08/30 06:59:49;;;;;;;6.80;5.13;;;;;;;16.69;nan;102075.19;5055086;28;20086;-60
2022/08/30 07:02:14;;;;;;;6.10;5.22;;;;;;;16.52;nan;102011.97;5053862;28;20037;-59
2022/08/30 07:04:40;;;;;;;5.05;4.65;;;;;;;16.68;nan;102020.28;5055127;28;20056;-63
2022/08/30 07:07:05;;;;;;;5.30;4.80;;;;;;;17.02;nan;102060.56;5037244;28;20104;-62
2022/08/30 07:09:30;;;;;;;5.03;4.38;;;;;;;17.23;nan;102073.03;5054924;28;20037;-63
2022/08/30 07:12:01;;;;;;;4.38;3.97;;;;;;;17.32;nan;102082.41;5055080;28;20123;-61
2022/08/30 07:14:26;;;;;;;5.07;4.10;;;;;;;17.11;nan;102014.97;5037117;28;20048;-65
2022/08/30 07:16:51;;;;;;;5.13;4.18;;;;;;;17.38;nan;102039.59;5037033;28;20045;-61
2022/08/30 07:19:17;;;;;;;6.05;3.88;;;;;;;17.44;nan;102016.25;5054396;28;20361;-57
2022/08/30 07:21:42;;;;;;;4.88;3.65;;;;;;;17.78;nan;102079.59;5053501;28;20477;-64
2022/08/30 07:24:09;;;;;;;5.35;3.75;;;;;;;17.87;nan;102084.53;5036227;28;20123;-63
2022/08/30 07:26:40;;;;;;;5.20;3.60;;;;;;;18.02;nan;102091.00;5054449;28;20542;-59
2022/08/30 07:29:07;;;;;;;3.95;2.92;;;;;;;17.93;nan;102059.44;5054010;28;20025;-62
2022/08/30 07:31:34;;;;;;;3.25;2.58;;;;;;;18.14;nan;102097.59;5035680;28;20098;-62
2022/08/30 07:34:03;;;;;;;4.28;3.03;;;;;;;18.21;nan;102107.06;5054544;28;20041;-61
2022/08/30 07:36:29;;;;;;;4.43;3.03;;;;;;;18.36;nan;102109.91;5054608;28;20552;-60
2022/08/30 07:38:54;;;;;;;5.07;2.80;;;;;;;18.49;nan;102123.59;5053567;28;20123;-62
2022/08/30 07:41:23;;;;;;;4.03;2.85;;;;;;;18.31;nan;102077.25;5052856;28;20048;-63
2022/08/30 07:43:49;;;;;;;3.70;2.53;;;;;;;18.53;nan;102094.03;5053107;28;20031;-61
2022/08/30 07:46:15;;;;;;;2.50;1.85;;;;;;;18.83;nan;102139.78;5035248;28;20477;-59
2022/08/30 07:48:40;;;;;;;3.53;2.30;;;;;;;18.81;nan;102125.66;5052967;28;20117;-61
2022/08/30 07:51:12;;;;;;;5.70;2.35;;;;;;;18.60;nan;102097.31;5053035;28;20043;-60
2022/08/30 07:53:38;;;;;;;12.13;3.33;;;;;;;18.88;nan;102129.78;5034939;28;20071;-60
2022/08/30 07:56:03;;;;;;;2.30;2.10;;;;;;;19.05;nan;102091.63;5035261;28;20069;-60
2022/08/30 07:58:29;;;;;;;2.78;1.95;;;;;;;19.59;nan;102144.16;5052877;28;20468;-60
2022/08/30 08:00:58;;;;;;;5.15;2.22;;;;;;;19.84;nan;102165.22;5035277;28;20055;-63
2022/08/30 08:03:24;;;;;;;5.38;2.35;;;;;;;20.21;nan;102152.56;5052645;28;20036;-65
2022/08/30 08:05:49;;;;;;;4.07;2.03;;;;;;;20.84;nan;102159.97;5052419;28;20041;-60
2022/08/30 08:08:14;;;;;;;3.15;1.73;;;;;;;21.05;nan;102115.94;5051599;28;20389;-63
2022/08/30 08:10:41;;;;;;;2.75;1.60;;;;;;;21.54;nan;102132.84;5052653;28;20037;-65
2022/08/30 08:13:06;;;;;;;5.45;2.17;;;;;;;21.90;nan;102173.59;5018199;28;20420;-60
2022/08/30 08:15:31;;;;;;;2.53;1.38;;;;;;;22.16;nan;102180.09;5051456;28;20032;-60
2022/08/30 08:17:57;;;;;;;2.10;1.38;;;;;;;22.27;nan;102173.13;5052441;28;20048;-61
2022/08/30 08:20:24;;;;;;;4.07;1.25;;;;;;;22.64;nan;102176.25;5052590;28;20036;-65
2022/08/30 08:22:50;;;;;;;2.85;1.30;;;;;;;22.80;nan;102183.28;5052443;28;20387;-62
2022/08/30 08:25:15;;;;;;;4.05;1.50;;;;;;;23.18;nan;102190.75;5051910;28;20043;-60
2022/08/30 08:27:41;;;;;;;3.92;1.30;;;;;;;22.77;nan;102191.53;5052176;28;20037;-60
2022/08/30 08:30:07;;;;;;;2.90;1.20;;;;;;;23.04;nan;102188.97;5052268;28;20045;-66
2022/08/30 08:32:32;;;;;;;1.73;1.20;;;;;;;22.96;nan;102202.88;5034310;28;20072;-60
2022/08/30 08:34:57;;;;;;;6.90;1.45;;;;;;;23.00;nan;102195.47;5052006;28;20408;-60
2022/08/30 08:37:23;;;;;;;2.65;1.40;;;;;;;23.16;nan;102190.88;5052185;28;20407;-59
2022/08/30 08:39:51;;;;;;;3.17;1.58;;;;;;;22.98;nan;102195.59;5051879;28;20503;-64
2022/08/30 08:42:46;;;;;;;2.47;1.00;;;;;;;23.14;nan;102197.31;5052025;28;20037;-60
2022/08/30 08:45:14;;;;;;;1.95;1.10;;;;;;;22.83;nan;102164.31;5029911;28;20083;-61
2022/08/30 08:47:43;;;;;;;3.63;1.42;;;;;;;22.62;nan;102164.78;5016209;28;20035;-60
2022/08/30 08:50:16;;;;;;;4.13;1.60;;;;;;;23.28;nan;102200.84;5051578;28;20036;-64
2022/08/30 08:55:32;;;;;;;2.17;1.10;;;;;;;23.81;nan;102156.19;5051876;28;20179;-64
2022/08/30 08:57:57;;;;;;;2.22;1.50;;;;;;;24.48;nan;102217.06;5017207;28;20833;-61
2022/08/30 09:00:23;;;;;;;3.10;1.00;;;;;;;25.04;nan;102168.16;5051737;28;20039;-62
2022/08/30 09:02:57;;;;;;;3.00;1.55;;;;;;;25.30;nan;102197.75;5033824;28;20036;-62
2022/08/30 09:05:24;;;;;;;2.97;1.40;;;;;;;25.27;nan;102208.75;5051859;28;20037;-62
2022/08/30 09:07:59;;;;;;;2.95;1.52;;;;;;;25.25;nan;102222.31;5033922;28;20028;-67
2022/08/30 09:10:25;;;;;;;1.75;1.30;;;;;;;24.68;nan;102164.50;5033772;28;20045;-62
2022/08/30 09:12:50;;;;;;;2.90;1.70;;;;;;;24.84;nan;102213.66;5033514;28;20411;-62
2022/08/30 09:15:20;;;;;;;1.92;1.00;;;;;;;25.39;nan;102215.97;5051496;28;20037;-62
2022/08/30 09:18:03;;;;;;;2.05;1.05;;;;;;;25.39;nan;102214.13;5051472;28;20029;-65
2022/08/30 09:20:40;;;;;;;4.45;1.48;;;;;;;25.23;nan;102209.94;5051352;28;20032;-61
2022/08/30 09:23:14;;;;;;;2.47;1.23;;;;;;;25.53;nan;102207.75;5033590;28;20039;-61
2022/08/30 09:26:12;;;;;;;3.10;1.25;;;;;;;25.40;nan;102213.13;5051326;28;20499;-62
2022/08/30 09:28:48;;;;;;;3.03;1.42;;;;;;;25.32;nan;102210.16;4996737;28;20056;-62
2022/08/30 09:31:23;;;;;;;6.25;1.33;;;;;;;24.58;nan;102164.28;5033085;28;20036;-62
2022/08/30 09:34:02;;;;;;;1.73;1.50;;;;;;;24.44;nan;102204.75;5033320;28;20436;-60
2022/08/30 09:36:32;;;;;;;2.95;1.45;;;;;;;24.61;nan;102197.25;5049865;28;20051;-61
2022/08/30 09:39:00;;;;;;;2.42;1.27;;;;;;;24.81;nan;102197.72;5050890;28;20506;-63
2022/08/30 09:41:44;;;;;;;5.07;1.80;;;;;;;25.36;nan;102205.41;5033392;28;20101;-64
2022/08/30 09:44:29;;;;;;;5.03;1.10;;;;;;;25.58;nan;102202.88;5033186;28;20029;-62
2022/08/30 09:46:56;;;;;;;2.35;1.10;;;;;;;25.94;nan;102156.09;5051383;28;20373;-65
2022/08/30 09:49:36;;;;;;;3.88;1.38;;;;;;;26.88;nan;102217.16;5033472;28;20076;-64
2022/08/30 09:52:17;;;;;;;6.30;1.20;;;;;;;26.97;nan;102207.47;5051120;28;20017;-62
2022/08/30 09:55:07;;;;;;;1.48;1.05;;;;;;;27.09;nan;102214.56;5050935;28;20028;-63
2022/08/30 09:57:41;;;;;;;1.75;1.05;;;;;;;26.96;nan;102217.41;5003460;28;20072;-64
2022/08/30 10:00:13;;;;;;;2.33;1.10;;;;;;;27.24;nan;102183.59;5051079;28;20033;-62
2022/08/30 10:03:07;;;;;;;1.23;0.95;;;;;;;27.88;nan;102219.75;5051084;28;20037;-62
2022/08/30 10:05:56;;;;;;;5.07;1.35;;;;;;;27.28;nan;102204.88;5033173;28;20082;-62
2022/08/30 10:09:03;;;;;;;1.75;1.05;;;;;;;27.56;nan;102224.25;5051068;28;20032;-61
2022/08/30 10:11:58;;;;;;;2.90;1.27;;;;;;;28.05;nan;102215.69;5050455;28;20433;-63
2022/08/30 10:15:00;;;;;;;2.78;1.23;;;;;;;27.57;nan;102209.75;5033148;28;20049;-64
2022/08/30 10:17:44;;;;;;;2.70;1.00;;;;;;;26.62;nan;102216.44;5032580;28;20033;-62
2022/08/30 10:20:18;;;;;;;2.78;1.10;;;;;;;26.27;nan;102224.56;5032699;28;20122;-60
2022/08/30 10:22:57;;;;;;;2.95;1.30;;;;;;;26.20;nan;102173.91;5032322;28;20147;-66
2022/08/30 10:25:35;;;;;;;3.40;1.58;;;;;;;26.78;nan;102200.78;5031971;28;20029;-63
2022/08/30 10:28:13;;;;;;;2.15;1.15;;;;;;;26.68;nan;102194.38;5032620;28;20059;-63
2022/08/30 10:30:42;;;;;;;2.72;1.10;;;;;;;26.39;nan;102217.38;5016987;28;20575;-63
2022/08/30 10:33:13;;;;;;;2.83;0.93;;;;;;;25.84;nan;102217.13;5050384;28;20029;-63
2022/08/30 10:35:43;;;;;;;2.33;0.98;;;;;;;25.85;nan;102168.47;5050664;28;20033;-67
2022/08/30 10:38:28;;;;;;;5.33;1.47;;;;;;;26.11;nan;102210.50;5032667;28;20103;-62
2022/08/30 10:41:27;;;;;;;4.55;1.27;;;;;;;25.50;nan;102218.75;5050145;28;20045;-59
2022/08/30 10:44:10;;;;;;;3.85;1.50;;;;;;;25.18;nan;102176.13;5050147;28;20040;-60
2022/08/30 10:46:51;;;;;;;2.70;1.60;;;;;;;25.65;nan;102221.19;5033044;28;20033;-62
2022/08/30 10:49:23;;;;;;;3.30;1.48;;;;;;;26.00;nan;102202.38;5054027;28;20033;-61
2022/08/30 10:52:20;;;;;;;4.07;1.15;;;;;;;26.49;nan;102210.31;5036216;28;20125;-62
2022/08/30 10:54:59;;;;;;;5.93;1.30;;;;;;;26.90;nan;102168.38;5035918;28;20438;-60
2022/08/30 10:57:25;;;;;;;2.05;1.50;;;;;;;26.84;nan;102185.94;5035952;28;20037;-68
2022/08/30 10:59:55;;;;;;;5.18;1.67;;;;;;;26.99;nan;102206.34;5053398;28;20119;-66
2022/08/30 11:03:05;;;;;;;1.73;1.10;;;;;;;26.43;nan;102215.31;5035961;28;20463;-65
2022/08/30 11:05:52;;;;;;;4.25;1.98;;;;;;;26.49;nan;102214.84;5019232;28;20041;-66
2022/08/30 11:08:32;;;;;;;2.30;1.02;;;;;;;26.84;nan;102223.78;5035718;28;20033;-65
2022/08/30 11:10:57;;;;;;;1.33;1.10;;;;;;;26.49;nan;102206.72;5035770;28;20076;-65
2022/08/30 11:13:25;;;;;;;2.70;1.30;;;;;;;26.93;nan;102170.84;5053848;28;20489;-63
2022/08/30 11:16:04;;;;;;;1.67;1.20;;;;;;;27.68;nan;102218.72;5035894;28;20295;-69
2022/08/30 11:18:47;;;;;;;2.78;1.00;;;;;;;27.28;nan;102190.47;5053481;28;20028;-66
2022/08/30 11:21:30;;;;;;;3.35;1.50;;;;;;;27.82;nan;102240.06;5053568;28;20033;-63
2022/08/30 11:24:10;;;;;;;4.88;1.45;;;;;;;27.51;nan;102219.25;5035854;28;20409;-66
2022/08/30 11:26:44;;;;;;;3.50;1.27;;;;;;;28.66;nan;102220.31;5053664;28;20171;-65
2022/08/30 11:29:35;;;;;;;5.18;1.55;;;;;;;28.52;nan;102204.34;5053699;28;20037;-63
2022/08/30 11:32:14;;;;;;;2.83;1.15;;;;;;;28.30;nan;102220.72;5035734;28;20032;-66
2022/08/30 11:34:46;;;;;;;1.55;1.20;;;;;;;28.43;nan;102213.25;5053239;28;20057;-62
2022/08/30 11:37:41;;;;;;;2.40;1.00;;;;;;;28.59;nan;102215.50;5053388;28;20076;-62
2022/08/30 11:40:24;;;;;;;3.17;1.15;;;;;;;28.32;nan;102189.81;5031310;28;20385;-62
2022/08/30 11:42:52;;;;;;;5.80;1.30;;;;;;;27.64;nan;102178.53;5053513;28;20111;-61
2022/08/30 11:45:23;;;;;;;1.88;1.30;;;;;;;28.59;nan;102201.97;5035530;28;20033;-63
2022/08/30 11:47:52;;;;;;;3.13;1.45;;;;;;;29.43;nan;102213.41;5053236;28;20407;-62
2022/08/30 11:50:23;;;;;;;9.40;1.48;;;;;;;29.08;nan;102202.09;5052774;28;20040;-64
2022/08/30 11:52:54;;;;;;;2.63;1.15;;;;;;;29.12;nan;102202.69;5052909;28;20523;-65